This is the latest recevied weather packets stored in our database for station/object OK1FPA-13. If no packets are shown the sender has not sent any weather packets the latest 10 day(s).
| Time | Temp. | Humidity | Pressure | Rain* | Wind** | Luminosity | Snow |
|---|---|---|---|---|---|---|---|
| 1777670068 | 11.11° C | 54% | 1025 hPa | - | - | - | - |
| 1777669468 | 11.11° C | 55% | 1025 hPa | - | - | - | - |
| 1777668868 | 11.11° C | 56% | 1024.9 hPa | - | - | - | - |
| 1777668268 | 11.11° C | 54% | 1024.9 hPa | - | - | - | - |
| 1777667668 | 11.11° C | 53% | 1024.8 hPa | - | - | - | - |
| 1777667068 | 11.11° C | 54% | 1024.8 hPa | - | - | - | - |
| 1777666468 | 12.78° C | 50% | 1024.7 hPa | - | - | - | - |
| 1777665868 | 12.78° C | 48% | 1024.7 hPa | - | - | - | - |
| 1777665268 | 13.33° C | 47% | 1024.7 hPa | - | - | - | - |
| 1777664668 | 12.78° C | 48% | 1024.6 hPa | - | - | - | - |
| 1777664068 | 13.33° C | 47% | 1024.6 hPa | - | - | - | - |
| 1777663468 | 15° C | 43% | 1024.5 hPa | - | - | - | - |
| 1777662868 | 16.11° C | 41% | 1024.4 hPa | - | - | - | - |
| 1777662268 | 16.67° C | 38% | 1024.4 hPa | - | - | - | - |
| 1777661668 | 16.67° C | 36% | 1024.3 hPa | - | - | - | - |
| 1777661068 | 17.22° C | 35% | 1024.3 hPa | - | - | - | - |
| 1777660468 | 17.78° C | 33% | 1024.2 hPa | - | - | - | - |
| 1777659868 | 18.33° C | 32% | 1024.1 hPa | - | - | - | - |
| 1777659268 | 18.33° C | 32% | 1023.9 hPa | - | - | - | - |
| 1777658668 | 18.89° C | 31% | 1023.8 hPa | - | - | - | - |
| 1777658068 | 19.44° C | 30% | 1023.8 hPa | - | - | - | - |
| 1777657468 | 19.44° C | 30% | 1023.7 hPa | - | - | - | - |
| 1777656868 | 19.44° C | 30% | 1023.7 hPa | - | - | - | - |
| 1777656268 | 20° C | 29% | 1023.6 hPa | - | - | - | - |
| 1777655668 | 20° C | 29% | 1023.6 hPa | - | - | - | - |
* Rain since midnight (hover to see other rain measurements)
** Current wind speed in m/s (hover to see current wind gust speed)